Time,TemperatureF,DewpointF,PressureIn,WindDirection,WindDirectionDegrees,WindSpeedMPH,WindSpeedGustMPH,Humidity,HourlyPrecipIn,Conditions,Clouds,dailyrainin,SoftwareType,DateUTC
2013-04-05 00:00:00,40.7,39.3,29.91,East,90,0.0,0.0,93,0.00,,,0.21,dv,2013-04-05 04:00:00,
2013-04-05 00:05:00,40.7,39.3,29.92,East,90,0.0,0.0,93,0.00,,,0.00,dv,2013-04-05 04:05:00,
2013-04-05 00:10:00,40.7,39.3,29.92,East,90,0.0,0.0,93,0.00,,,0.00,dv,2013-04-05 04:10:00,
2013-04-05 00:15:00,40.7,39.3,29.92,East,91,0.0,0.0,93,0.00,,,0.00,dv,2013-04-05 04:15:00,
2013-04-05 00:20:00,40.6,39.0,29.92,East,91,1.6,1.6,92,0.00,,,0.00,dv,2013-04-05 04:20:00,
2013-04-05 00:25:00,40.7,39.3,29.92,East,90,0.0,0.0,93,0.00,,,0.00,dv,2013-04-05 04:25:00,
2013-04-05 00:30:00,40.7,39.1,29.92,East,90,0.0,0.0,92,0.00,,,0.00,dv,2013-04-05 04:30:00,
2013-04-05 00:35:00,40.8,39.4,29.92,East,90,0.0,0.0,93,0.00,,,0.00,dv,2013-04-05 04:35:00,
2013-04-05 00:40:00,40.7,39.1,29.92,East,91,0.0,0.0,92,0.00,,,0.00,dv,2013-04-05 04:40:00,
2013-04-05 00:45:00,40.7,39.1,29.92,East,90,3.2,3.2,92,0.00,,,0.00,dv,2013-04-05 04:45:00,
2013-04-05 00:50:00,40.6,39.0,29.92,East,91,1.6,1.6,92,0.00,,,0.00,dv,2013-04-05 04:50:00,
2013-04-05 00:55:00,40.6,39.0,29.92,East,90,3.2,3.2,92,0.00,,,0.00,dv,2013-04-05 04:55:00,
2013-04-05 01:00:00,40.6,39.0,29.92,SSW,202,4.8,4.8,92,0.00,,,0.00,dv,2013-04-05 05:00:00,
2013-04-05 01:05:00,40.5,38.9,29.92,East,90,3.2,3.2,92,0.00,,,0.00,dv,2013-04-05 05:05:00,
2013-04-05 01:10:00,40.4,38.8,29.92,East,90,1.6,1.6,92,0.00,,,0.00,dv,2013-04-05 05:10:00,
2013-04-05 01:15:00,40.3,38.5,29.92,East,90,3.2,3.2,91,0.00,,,0.00,dv,2013-04-05 05:15:00,
2013-04-05 01:20:00,40.2,38.7,29.92,East,90,1.6,1.6,92,0.00,,,0.00,dv,2013-04-05 05:20:00,
2013-04-05 01:25:00,40.2,38.7,29.92,East,89,1.6,1.6,92,0.00,,,0.00,dv,2013-04-05 05:25:00,
2013-04-05 01:30:00,40.1,38.6,29.92,East,89,1.6,1.6,92,0.00,,,0.00,dv,2013-04-05 05:30:00,
2013-04-05 01:35:00,40.0,38.5,29.92,East,89,3.2,3.2,92,0.00,,,0.00,dv,2013-04-05 05:35:00,
2013-04-05 01:40:00,39.9,38.2,29.92,East,82,4.8,4.8,91,0.00,,,0.00,dv,2013-04-05 05:40:00,
2013-04-05 01:45:00,39.9,38.2,29.92,East,82,3.2,3.2,91,0.00,,,0.00,dv,2013-04-05 05:45:00,
2013-04-05 01:50:00,39.9,38.2,29.91,East,82,3.2,3.2,91,0.00,,,0.00,dv,2013-04-05 05:50:00,
2013-04-05 01:55:00,39.9,38.2,29.91,East,82,3.2,3.2,91,0.00,,,0.00,dv,2013-04-05 05:55:00,
2013-04-05 02:00:00,39.9,38.4,29.91,East,82,0.0,0.0,92,0.00,,,0.00,dv,2013-04-05 06:00:00,
2013-04-05 02:05:00,39.9,38.2,29.92,East,82,3.2,3.2,91,0.00,,,0.00,dv,2013-04-05 06:05:00,
2013-04-05 02:10:00,40.0,38.5,29.92,East,82,1.6,1.6,92,0.00,,,0.00,dv,2013-04-05 06:10:00,
2013-04-05 02:15:00,40.0,38.5,29.92,East,82,0.0,0.0,92,0.00,,,0.00,dv,2013-04-05 06:15:00,
2013-04-05 02:20:00,40.0,38.3,29.91,East,82,0.0,0.0,91,0.00,,,0.00,dv,2013-04-05 06:20:00,
2013-04-05 02:25:00,40.1,38.6,29.91,East,82,0.0,0.0,92,0.00,,,0.00,dv,2013-04-05 06:25:00,
2013-04-05 02:30:00,40.1,38.6,29.91,East,82,0.0,0.0,92,0.00,,,0.00,dv,2013-04-05 06:30:00,
2013-04-05 02:35:00,40.1,38.6,29.91,East,82,0.0,0.0,92,0.00,,,0.00,dv,2013-04-05 06:35:00,
2013-04-05 02:40:00,40.1,38.6,29.90,East,82,1.6,1.6,92,0.00,,,0.00,dv,2013-04-05 06:40:00,
2013-04-05 02:45:00,40.1,38.6,29.90,East,82,0.0,0.0,92,0.00,,,0.00,dv,2013-04-05 06:45:00,
2013-04-05 02:50:00,40.1,38.6,29.90,East,82,0.0,0.0,92,0.00,,,0.00,dv,2013-04-05 06:50:00,
2013-04-05 02:55:00,40.2,38.7,29.90,East,82,0.0,0.0,92,0.00,,,0.00,dv,2013-04-05 06:55:00,
2013-04-05 03:00:00,40.1,38.3,29.90,East,82,0.0,0.0,91,0.00,,,0.00,dv,2013-04-05 07:00:00,
2013-04-05 03:05:00,40.1,38.3,29.89,East,82,0.0,0.0,91,0.00,,,0.00,dv,2013-04-05 07:05:00,
2013-04-05 03:10:00,40.1,38.3,29.89,East,82,0.0,0.0,91,0.00,,,0.00,dv,2013-04-05 07:10:00,
2013-04-05 03:15:00,40.1,38.3,29.88,East,82,0.0,0.0,91,0.00,,,0.00,dv,2013-04-05 07:15:00,
2013-04-05 03:20:00,40.1,38.3,29.89,East,82,0.0,0.0,91,0.00,,,0.00,dv,2013-04-05 07:20:00,
2013-04-05 03:25:00,40.1,38.6,29.89,East,82,0.0,0.0,92,0.00,,,0.00,dv,2013-04-05 07:25:00,
2013-04-05 03:30:00,40.2,38.7,29.89,East,82,0.0,0.0,92,0.00,,,0.00,dv,2013-04-05 07:30:00,
2013-04-05 03:35:00,40.3,38.8,29.89,East,82,0.0,0.0,92,0.00,,,0.00,dv,2013-04-05 07:35:00,
2013-04-05 03:40:00,40.3,38.8,29.88,East,82,0.0,0.0,92,0.00,,,0.00,dv,2013-04-05 07:40:00,
2013-04-05 03:45:00,40.3,38.8,29.89,East,82,0.0,0.0,92,0.00,,,0.00,dv,2013-04-05 07:45:00,
2013-04-05 03:50:00,40.3,38.5,29.88,East,82,0.0,0.0,91,0.00,,,0.00,dv,2013-04-05 07:50:00,
2013-04-05 04:00:00,40.3,38.5,29.88,East,82,0.0,0.0,91,0.00,,,0.00,dv,2013-04-05 08:00:00,
2013-04-05 04:10:00,40.4,38.8,29.87,East,81,0.0,0.0,92,0.00,,,0.00,dv,2013-04-05 08:10:00,
2013-04-05 04:15:00,40.3,38.5,29.87,East,82,0.0,0.0,91,0.00,,,0.00,dv,2013-04-05 08:15:00,
2013-04-05 04:20:00,40.4,38.8,29.87,East,82,0.0,0.0,92,0.00,,,0.00,dv,2013-04-05 08:20:00,
2013-04-05 04:30:00,40.6,39.0,29.87,East,82,0.0,0.0,92,0.00,,,0.00,dv,2013-04-05 08:30:00,
2013-04-05 04:35:00,40.7,39.1,29.87,East,82,0.0,0.0,92,0.00,,,0.00,dv,2013-04-05 08:35:00,
2013-04-05 04:40:00,40.7,39.1,29.87,East,82,1.6,1.6,92,0.00,,,0.00,dv,2013-04-05 08:40:00,
2013-04-05 04:45:00,40.8,39.2,29.87,SW,229,4.8,4.8,92,0.00,,,0.00,dv,2013-04-05 08:45:00,
2013-04-05 04:55:00,40.7,39.1,29.86,West,279,1.6,1.6,92,0.00,,,0.00,dv,2013-04-05 08:55:00,
2013-04-05 05:00:00,40.7,39.1,29.86,West,278,3.2,3.2,92,0.00,,,0.00,dv,2013-04-05 09:00:00,
2013-04-05 05:05:00,40.6,39.0,29.86,NW,304,3.2,3.2,92,0.00,,,0.00,dv,2013-04-05 09:05:00,
2013-04-05 05:10:00,40.7,39.1,29.86,SSW,210,4.8,4.8,92,0.00,,,0.00,dv,2013-04-05 09:10:00,
2013-04-05 05:15:00,40.7,39.3,29.85,WSW,238,3.2,3.2,93,0.00,,,0.00,dv,2013-04-05 09:15:00,
2013-04-05 05:20:00,40.8,39.4,29.85,WSW,238,3.2,3.2,93,0.00,,,0.00,dv,2013-04-05 09:20:00,
2013-04-05 05:25:00,40.9,39.5,29.85,WSW,253,4.8,4.8,93,0.00,,,0.00,dv,2013-04-05 09:25:00,
2013-04-05 05:30:00,40.9,39.5,29.85,WSW,256,3.2,3.2,93,0.00,,,0.00,dv,2013-04-05 09:30:00,
2013-04-05 05:35:00,40.9,39.5,29.86,WSW,254,3.2,3.2,93,0.00,,,0.00,dv,2013-04-05 09:35:00,
2013-04-05 05:40:00,41.0,39.6,29.86,WSW,251,3.2,3.2,93,0.00,,,0.00,dv,2013-04-05 09:40:00,
2013-04-05 05:45:00,41.0,39.6,29.86,WSW,251,3.2,3.2,93,0.00,,,0.00,dv,2013-04-05 09:45:00,
2013-04-05 05:50:00,41.0,39.6,29.87,WSW,251,3.2,3.2,93,0.00,,,0.00,dv,2013-04-05 09:50:00,
2013-04-05 05:55:00,41.1,39.7,29.86,WSW,244,4.8,4.8,93,0.00,,,0.00,dv,2013-04-05 09:55:00,
2013-04-05 06:05:00,41.2,39.8,29.88,WSW,244,3.2,3.2,93,0.00,,,0.00,dv,2013-04-05 10:05:00,
2013-04-05 06:10:00,41.2,39.8,29.87,WSW,244,3.2,3.2,93,0.00,,,0.00,dv,2013-04-05 10:10:00,
2013-04-05 06:15:00,41.3,39.9,29.87,WSW,244,0.0,0.0,93,0.00,,,0.00,dv,2013-04-05 10:15:00,
2013-04-05 06:20:00,41.3,39.9,29.87,WSW,244,1.6,1.6,93,0.00,,,0.00,dv,2013-04-05 10:20:00,
2013-04-05 06:25:00,41.3,39.9,29.87,WSW,244,0.0,0.0,93,0.00,,,0.00,dv,2013-04-05 10:25:00,
2013-04-05 06:30:00,41.4,40.0,29.88,WSW,244,0.0,0.0,93,0.00,,,0.00,dv,2013-04-05 10:30:00,
2013-04-05 06:40:00,41.5,40.1,29.89,WSW,244,0.0,0.0,93,0.00,,,0.00,dv,2013-04-05 10:40:00,
2013-04-05 06:45:00,41.5,40.1,29.88,WSW,244,0.0,0.0,93,0.00,,,0.00,dv,2013-04-05 10:45:00,
2013-04-05 06:50:00,41.5,40.1,29.88,WSW,244,0.0,0.0,93,0.00,,,0.00,dv,2013-04-05 10:50:00,
2013-04-05 06:55:00,41.6,40.2,29.88,WSW,244,0.0,0.0,93,0.00,,,0.00,dv,2013-04-05 10:55:00,
2013-04-05 07:05:00,41.6,40.2,29.88,WSW,244,0.0,0.0,93,0.00,,,0.00,dv,2013-04-05 11:05:00,
2013-04-05 07:10:00,41.5,40.1,29.88,WSW,244,0.0,0.0,93,0.00,,,0.00,dv,2013-04-05 11:10:00,
2013-04-05 07:15:00,41.5,39.9,29.88,WSW,244,0.0,0.0,92,0.00,,,0.00,dv,2013-04-05 11:15:00,
2013-04-05 07:20:00,41.4,39.8,29.89,WSW,244,0.0,0.0,92,0.00,,,0.00,dv,2013-04-05 11:20:00,
2013-04-05 07:25:00,41.3,39.7,29.88,WSW,244,0.0,0.0,92,0.00,,,0.00,dv,2013-04-05 11:25:00,
2013-04-05 07:30:00,41.1,39.5,29.89,WSW,244,0.0,0.0,92,0.00,,,0.00,dv,2013-04-05 11:30:00,
2013-04-05 07:35:00,41.1,39.5,29.88,WSW,244,0.0,0.0,92,0.00,,,0.00,dv,2013-04-05 11:35:00,
2013-04-05 07:40:00,41.2,39.6,29.88,WSW,244,1.6,1.6,92,0.00,,,0.00,dv,2013-04-05 11:40:00,
2013-04-05 07:45:00,41.3,39.9,29.89,WSW,244,0.0,0.0,93,0.00,,,0.00,dv,2013-04-05 11:45:00,
2013-04-05 07:50:00,41.3,39.9,29.89,WSW,244,0.0,0.0,93,0.00,,,0.00,dv,2013-04-05 11:50:00,
2013-04-05 08:00:00,41.6,40.4,29.89,SSW,211,4.8,4.8,94,0.00,,,0.00,dv,2013-04-05 12:00:00,
2013-04-05 08:05:00,41.6,40.2,29.89,SW,222,3.2,3.2,93,0.00,,,0.00,dv,2013-04-05 12:05:00,
2013-04-05 08:10:00,41.6,40.2,29.89,West,274,4.8,4.8,93,0.00,,,0.00,dv,2013-04-05 12:10:00,
2013-04-05 08:15:00,41.7,40.3,29.89,West,278,6.4,6.4,93,0.00,,,0.00,dv,2013-04-05 12:15:00,
2013-04-05 08:20:00,41.8,40.6,29.89,West,274,8.1,8.1,94,0.00,,,0.00,dv,2013-04-05 12:20:00,
2013-04-05 08:25:00,41.8,40.4,29.90,WSW,238,4.8,4.8,93,0.00,,,0.00,dv,2013-04-05 12:25:00,
2013-04-05 08:30:00,42.0,40.8,29.89,West,279,4.8,4.8,94,0.00,,,0.00,dv,2013-04-05 12:30:00,
2013-04-05 08:35:00,42.2,41.0,29.89,WSW,256,4.8,4.8,94,0.00,,,0.00,dv,2013-04-05 12:35:00,
2013-04-05 08:40:00,42.4,41.2,29.89,WNW,284,4.8,4.8,94,0.00,,,0.00,dv,2013-04-05 12:40:00,
2013-04-05 08:45:00,42.7,41.7,29.89,West,266,4.8,4.8,95,0.00,,,0.00,dv,2013-04-05 12:45:00,
2013-04-05 08:50:00,43.0,42.0,29.89,West,266,4.8,4.8,95,0.00,,,0.00,dv,2013-04-05 12:50:00,
2013-04-05 08:55:00,43.2,42.0,29.89,West,266,4.8,4.8,94,0.00,,,0.00,dv,2013-04-05 12:55:00,
2013-04-05 09:00:00,43.4,42.2,29.90,West,266,3.2,3.2,94,0.00,,,0.00,dv,2013-04-05 13:00:00,
2013-04-05 09:05:00,43.6,42.4,29.90,West,266,0.0,0.0,94,0.00,,,0.00,dv,2013-04-05 13:05:00,
2013-04-05 09:10:00,43.8,42.4,29.89,NE,55,4.8,4.8,93,0.00,,,0.00,dv,2013-04-05 13:10:00,
2013-04-05 09:15:00,44.0,42.6,29.90,NE,55,3.2,3.2,93,0.00,,,0.00,dv,2013-04-05 13:15:00,
2013-04-05 09:20:00,44.2,42.4,29.90,ENE,72,3.2,3.2,91,0.00,,,0.00,dv,2013-04-05 13:20:00,
2013-04-05 09:30:00,44.8,42.8,29.91,ENE,72,3.2,3.2,90,0.00,,,0.00,dv,2013-04-05 13:30:00,
2013-04-05 09:35:00,45.2,43.2,29.91,North,350,3.2,3.2,90,0.00,,,0.00,dv,2013-04-05 13:35:00,
2013-04-05 09:40:00,45.7,43.7,29.91,NE,50,3.2,3.2,90,0.00,,,0.00,dv,2013-04-05 13:40:00,
2013-04-05 09:45:00,46.1,43.6,29.91,ENE,62,3.2,3.2,88,0.00,,,0.00,dv,2013-04-05 13:45:00,
2013-04-05 09:50:00,46.5,43.6,29.91,ENE,73,4.8,4.8,86,0.00,,,0.00,dv,2013-04-05 13:50:00,
2013-04-05 10:00:00,47.4,44.2,29.91,ENE,75,4.8,4.8,85,0.00,,,0.00,dv,2013-04-05 14:00:00,
2013-04-05 10:05:00,47.7,44.3,29.92,ENE,75,1.6,1.6,84,0.00,,,0.00,dv,2013-04-05 14:05:00,
2013-04-05 10:15:00,48.5,44.9,29.91,ENE,75,4.8,4.8,83,0.00,,,0.00,dv,2013-04-05 14:15:00,
2013-04-05 10:20:00,48.9,44.5,29.92,ENE,75,3.2,3.2,80,0.00,,,0.00,dv,2013-04-05 14:20:00,
2013-04-05 10:25:00,49.3,45.4,29.92,ENE,75,3.2,3.2,82,0.00,,,0.00,dv,2013-04-05 14:25:00,
2013-04-05 10:30:00,49.6,44.7,29.92,ENE,75,4.8,4.8,78,0.00,,,0.00,dv,2013-04-05 14:30:00,
2013-04-05 10:35:00,49.8,45.4,29.92,NE,52,4.8,4.8,80,0.00,,,0.00,dv,2013-04-05 14:35:00,
2013-04-05 10:40:00,50.1,45.2,29.93,ENE,72,4.8,4.8,78,0.00,,,0.00,dv,2013-04-05 14:40:00,
2013-04-05 10:45:00,50.4,45.2,29.93,NNE,22,8.1,8.1,77,0.00,,,0.00,dv,2013-04-05 14:45:00,
2013-04-05 10:55:00,51.2,45.5,29.93,East,84,4.8,4.8,75,0.00,,,0.00,dv,2013-04-05 14:55:00,
2013-04-05 11:00:00,51.5,45.5,29.93,East,84,1.6,1.6,74,0.00,,,0.00,dv,2013-04-05 15:00:00,
2013-04-05 11:10:00,52.4,46.7,29.93,East,84,1.6,1.6,75,0.00,,,0.00,dv,2013-04-05 15:10:00,
2013-04-05 11:15:00,52.7,46.4,29.94,East,84,3.2,3.2,73,0.00,,,0.00,dv,2013-04-05 15:15:00,
2013-04-05 11:20:00,52.9,46.3,29.93,East,85,3.2,3.2,72,0.00,,,0.00,dv,2013-04-05 15:20:00,
2013-04-05 11:30:00,53.3,46.7,29.94,East,84,3.2,3.2,72,0.00,,,0.00,dv,2013-04-05 15:30:00,
2013-04-05 11:35:00,53.3,46.2,29.94,East,85,3.2,3.2,70,0.00,,,0.00,dv,2013-04-05 15:35:00,
2013-04-05 11:40:00,53.3,46.7,29.94,East,84,1.6,1.6,72,0.00,,,0.00,dv,2013-04-05 15:40:00,
2013-04-05 11:45:00,53.5,47.7,29.95,East,85,3.2,3.2,75,0.00,,,0.00,dv,2013-04-05 15:45:00,
2013-04-05 11:50:00,53.7,48.2,29.95,East,84,0.0,0.0,76,0.00,,,0.00,dv,2013-04-05 15:50:00,
2013-04-05 12:00:00,54.3,48.5,29.95,ENE,75,4.8,4.8,75,0.00,,,0.00,dv,2013-04-05 16:00:00,
2013-04-05 12:05:00,54.6,48.5,29.94,ENE,76,4.8,4.8,74,0.00,,,0.00,dv,2013-04-05 16:05:00,
2013-04-05 12:10:00,54.8,48.4,29.95,ENE,76,3.2,3.2,73,0.00,,,0.00,dv,2013-04-05 16:10:00,
2013-04-05 12:20:00,54.6,48.2,29.95,East,81,4.8,4.8,73,0.00,,,0.00,dv,2013-04-05 16:20:00,
2013-04-05 12:25:00,54.2,47.6,29.95,East,81,3.2,3.2,72,0.00,,,0.00,dv,2013-04-05 16:25:00,
2013-04-05 12:30:00,54.0,47.9,29.95,East,81,3.2,3.2,74,0.00,,,0.00,dv,2013-04-05 16:30:00,
2013-04-05 12:35:00,54.5,48.1,29.95,ENE,71,4.8,4.8,73,0.00,,,0.00,dv,2013-04-05 16:35:00,
2013-04-05 12:40:00,54.8,48.7,29.95,ENE,76,1.6,1.6,74,0.00,,,0.00,dv,2013-04-05 16:40:00,
2013-04-05 12:45:00,55.3,48.9,29.95,East,97,4.8,4.8,73,0.00,,,0.00,dv,2013-04-05 16:45:00,
2013-04-05 12:50:00,55.8,49.4,29.94,South,176,3.2,3.2,73,0.00,,,0.00,dv,2013-04-05 16:50:00,
2013-04-05 12:55:00,56.3,49.0,29.94,SSE,165,3.2,3.2,70,0.00,,,0.00,dv,2013-04-05 16:55:00,
2013-04-05 13:00:00,56.7,48.8,29.94,ENE,78,4.8,4.8,68,0.00,,,0.00,dv,2013-04-05 17:00:00,
2013-04-05 13:05:00,56.9,48.4,29.94,SSW,198,6.4,6.4,66,0.00,,,0.00,dv,2013-04-05 17:05:00,
2013-04-05 13:10:00,57.1,48.3,29.93,East,88,4.8,4.8,65,0.00,,,0.00,dv,2013-04-05 17:10:00,
2013-04-05 13:15:00,57.2,48.1,29.93,NNE,22,0.0,0.0,64,0.00,,,0.00,dv,2013-04-05 17:15:00,
2013-04-05 13:20:00,57.7,49.8,29.93,SW,230,4.8,4.8,68,0.00,,,0.00,dv,2013-04-05 17:20:00,
2013-04-05 13:25:00,58.2,49.6,29.93,West,261,8.1,8.1,66,0.00,,,0.00,dv,2013-04-05 17:25:00,
2013-04-05 13:35:00,58.8,50.2,29.94,SSW,209,9.7,9.7,66,0.00,,,0.00,dv,2013-04-05 17:35:00,
2013-04-05 13:40:00,59.0,49.8,29.93,SSW,212,8.1,8.1,64,0.00,,,0.00,dv,2013-04-05 17:40:00,
2013-04-05 13:50:00,58.7,48.5,29.93,West,264,4.8,4.8,61,0.00,,,0.00,dv,2013-04-05 17:50:00,
2013-04-05 13:55:00,58.9,49.7,29.93,West,266,9.7,9.7,64,0.00,,,0.00,dv,2013-04-05 17:55:00,
2013-04-05 14:00:00,59.1,48.9,29.92,SSW,195,4.8,4.8,61,0.00,,,0.00,dv,2013-04-05 18:00:00,
2013-04-05 14:10:00,59.1,49.6,29.92,SSW,195,8.1,8.1,63,0.00,,,0.00,dv,2013-04-05 18:10:00,
2013-04-05 14:15:00,59.0,49.1,29.93,West,262,3.2,3.2,62,0.00,,,0.00,dv,2013-04-05 18:15:00,
2013-04-05 14:20:00,59.1,49.6,29.92,South,191,9.7,9.7,63,0.00,,,0.00,dv,2013-04-05 18:20:00,
2013-04-05 14:25:00,59.6,49.4,29.92,South,191,0.0,0.0,61,0.00,,,0.00,dv,2013-04-05 18:25:00,
2013-04-05 14:30:00,60.0,49.4,29.92,South,191,1.6,1.6,60,0.00,,,0.00,dv,2013-04-05 18:30:00,
2013-04-05 14:35:00,60.5,49.9,29.92,NW,310,8.1,8.1,60,0.00,,,0.00,dv,2013-04-05 18:35:00,
2013-04-05 14:40:00,60.8,49.1,29.91,SSW,209,6.4,6.4,57,0.00,,,0.00,dv,2013-04-05 18:40:00,
2013-04-05 14:45:00,61.2,50.2,29.91,SSW,208,6.4,6.4,59,0.00,,,0.00,dv,2013-04-05 18:45:00,
2013-04-05 14:50:00,61.7,50.3,29.91,ENE,74,11.3,11.3,58,0.00,,,0.00,dv,2013-04-05 18:50:00,
2013-04-05 14:55:00,62.0,49.9,29.91,SE,137,6.4,6.4,56,0.00,,,0.00,dv,2013-04-05 18:55:00,
2013-04-05 15:00:00,62.5,50.7,29.90,SSW,208,8.1,8.1,57,0.00,,,0.00,dv,2013-04-05 19:00:00,
2013-04-05 15:05:00,63.0,48.9,29.91,ENE,73,6.4,6.4,51,0.00,,,0.00,dv,2013-04-05 19:05:00,
2013-04-05 15:10:00,63.1,49.8,29.90,SSW,213,6.4,6.4,53,0.00,,,0.00,dv,2013-04-05 19:10:00,
2013-04-05 15:15:00,63.2,49.9,29.91,West,262,8.1,8.1,53,0.00,,,0.00,dv,2013-04-05 19:15:00,
2013-04-05 15:20:00,63.1,48.2,29.90,ENE,75,4.8,4.8,49,0.00,,,0.00,dv,2013-04-05 19:20:00,
2013-04-05 15:25:00,63.1,49.0,29.90,ENE,75,1.6,1.6,51,0.00,,,0.00,dv,2013-04-05 19:25:00,
2013-04-05 15:30:00,63.2,48.3,29.90,ENE,68,9.7,9.7,49,0.00,,,0.00,dv,2013-04-05 19:30:00,
2013-04-05 15:35:00,63.3,48.8,29.89,South,171,9.7,9.7,50,0.00,,,0.00,dv,2013-04-05 19:35:00,
2013-04-05 15:40:00,63.5,49.0,29.89,WNW,294,6.4,6.4,50,0.00,,,0.00,dv,2013-04-05 19:40:00,
2013-04-05 15:45:00,63.6,49.5,29.89,West,261,8.1,8.1,51,0.00,,,0.00,dv,2013-04-05 19:45:00,
2013-04-05 15:50:00,63.9,48.5,29.89,South,170,8.1,8.1,48,0.00,,,0.00,dv,2013-04-05 19:50:00,
2013-04-05 15:55:00,64.3,48.5,29.89,ENE,59,4.8,4.8,47,0.00,,,0.00,dv,2013-04-05 19:55:00,
2013-04-05 16:00:00,64.6,50.4,29.89,NE,41,3.2,3.2,51,0.00,,,0.00,dv,2013-04-05 20:00:00,
2013-04-05 16:10:00,65.4,49.1,29.88,East,82,6.4,6.4,46,0.00,,,0.00,dv,2013-04-05 20:10:00,
2013-04-05 16:15:00,65.4,48.2,29.88,ENE,69,6.4,6.4,44,0.00,,,0.00,dv,2013-04-05 20:15:00,
2013-04-05 16:20:00,65.5,50.8,29.88,SSW,196,6.4,6.4,50,0.00,,,0.00,dv,2013-04-05 20:20:00,
2013-04-05 16:25:00,65.7,49.3,29.88,SSW,196,1.6,1.6,46,0.00,,,0.00,dv,2013-04-05 20:25:00,
2013-04-05 16:30:00,66.0,50.4,29.87,South,175,4.8,4.8,48,0.00,,,0.00,dv,2013-04-05 20:30:00,
2013-04-05 16:35:00,66.5,49.6,29.88,SSW,206,11.3,11.3,45,0.00,,,0.00,dv,2013-04-05 20:35:00,
2013-04-05 16:40:00,66.7,49.8,29.88,NNE,32,6.4,6.4,45,0.00,,,0.00,dv,2013-04-05 20:40:00,
2013-04-05 16:45:00,66.5,49.1,29.88,NE,37,8.1,8.1,44,0.00,,,0.00,dv,2013-04-05 20:45:00,
2013-04-05 16:50:00,66.1,48.3,29.88,ENE,72,8.1,8.1,43,0.00,,,0.00,dv,2013-04-05 20:50:00,
2013-04-05 16:55:00,65.8,48.1,29.88,ENE,76,4.8,4.8,43,0.00,,,0.00,dv,2013-04-05 20:55:00,
2013-04-05 17:00:00,65.7,42.8,29.88,East,88,4.8,4.8,33,0.00,,,0.00,dv,2013-04-05 21:00:00,
2013-04-05 17:10:00,66.0,44.2,29.89,SW,236,4.8,4.8,35,0.00,,,0.00,dv,2013-04-05 21:10:00,
2013-04-05 17:20:00,66.3,40.2,29.88,NNW,339,9.7,9.7,28,0.00,,,0.00,dv,2013-04-05 21:20:00,
2013-04-05 17:25:00,66.3,39.6,29.88,East,81,8.1,8.1,27,0.00,,,0.00,dv,2013-04-05 21:25:00,
2013-04-05 17:30:00,66.2,40.1,29.88,WNW,288,11.3,11.3,28,0.00,,,0.00,dv,2013-04-05 21:30:00,
2013-04-05 17:35:00,66.2,42.1,29.88,West,264,8.1,8.1,31,0.00,,,0.00,dv,2013-04-05 21:35:00,
2013-04-05 17:40:00,66.3,39.6,29.88,ENE,68,8.1,8.1,27,0.00,,,0.00,dv,2013-04-05 21:40:00,
2013-04-05 17:50:00,66.4,41.0,29.89,ENE,72,9.7,9.7,29,0.00,,,0.00,dv,2013-04-05 21:50:00,
2013-04-05 17:55:00,66.3,40.9,29.88,WSW,247,8.1,8.1,29,0.00,,,0.00,dv,2013-04-05 21:55:00,
2013-04-05 18:00:00,66.3,40.9,29.89,NNE,22,9.7,9.7,29,0.00,,,0.00,dv,2013-04-05 22:00:00,
2013-04-05 18:05:00,66.2,43.3,29.89,WSW,246,6.4,6.4,33,0.00,,,0.00,dv,2013-04-05 22:05:00,
2013-04-05 18:10:00,66.1,43.2,29.89,West,273,8.1,8.1,33,0.00,,,0.00,dv,2013-04-05 22:10:00,
2013-04-05 18:15:00,65.8,44.0,29.89,WNW,287,12.9,12.9,35,0.00,,,0.00,dv,2013-04-05 22:15:00,
2013-04-05 18:20:00,65.5,45.4,29.89,WSW,238,9.7,9.7,38,0.00,,,0.00,dv,2013-04-05 22:20:00,
2013-04-05 18:25:00,65.1,44.0,29.90,NE,45,12.9,12.9,36,0.00,,,0.00,dv,2013-04-05 22:25:00,
2013-04-05 18:30:00,64.8,43.7,29.90,WSW,257,16.1,16.1,36,0.00,,,0.00,dv,2013-04-05 22:30:00,
2013-04-05 18:35:00,64.3,42.8,29.90,NW,313,16.1,16.1,35,0.00,,,0.00,dv,2013-04-05 22:35:00,
2013-04-05 18:40:00,64.0,44.6,29.91,West,265,14.5,14.5,39,0.00,,,0.00,dv,2013-04-05 22:40:00,
2013-04-05 18:45:00,63.6,43.2,29.91,SW,217,11.3,11.3,37,0.00,,,0.00,dv,2013-04-05 22:45:00,
2013-04-05 18:55:00,63.3,43.5,29.91,SW,225,12.9,12.9,38,0.00,,,0.00,dv,2013-04-05 22:55:00,
2013-04-05 19:00:00,63.1,42.2,29.92,WSW,240,9.7,9.7,36,0.00,,,0.00,dv,2013-04-05 23:00:00,
2013-04-05 19:05:00,62.8,42.0,29.92,WSW,247,16.1,16.1,36,0.00,,,0.00,dv,2013-04-05 23:05:00,
2013-04-05 19:10:00,62.4,42.2,29.92,West,272,12.9,12.9,37,0.00,,,0.00,dv,2013-04-05 23:10:00,
2013-04-05 19:15:00,62.2,42.0,29.92,WNW,284,14.5,14.5,37,0.00,,,0.00,dv,2013-04-05 23:15:00,
2013-04-05 19:25:00,61.5,42.4,29.92,WSW,248,14.5,14.5,39,0.00,,,0.00,dv,2013-04-05 23:25:00,
2013-04-05 19:30:00,61.2,41.6,29.93,WNW,283,17.7,17.7,38,0.00,,,0.00,dv,2013-04-05 23:30:00,
2013-04-05 19:35:00,60.8,41.3,29.93,West,267,12.9,12.9,38,0.00,,,0.00,dv,2013-04-05 23:35:00,
2013-04-05 19:45:00,60.1,41.1,29.94,WNW,292,9.7,9.7,39,0.00,,,0.00,dv,2013-04-05 23:45:00,
2013-04-05 19:50:00,59.8,41.8,29.94,NNW,347,9.7,9.7,41,0.00,,,0.00,dv,2013-04-05 23:50:00,
2013-04-05 19:55:00,59.5,41.1,29.95,WSW,254,6.4,6.4,40,0.00,,,0.00,dv,2013-04-05 23:55:00,
2013-04-05 20:00:00,59.2,41.3,29.95,WSW,252,8.1,8.1,41,0.00,,,0.00,dv,2013-04-06 00:00:00,
2013-04-05 20:05:00,58.8,40.9,29.95,WNW,295,6.4,6.4,41,0.00,,,0.00,dv,2013-04-06 00:05:00,
2013-04-05 20:10:00,58.6,41.7,29.95,West,278,8.1,8.1,43,0.00,,,0.00,dv,2013-04-06 00:10:00,
2013-04-05 20:15:00,58.3,41.0,29.95,WNW,292,4.8,4.8,42,0.00,,,0.00,dv,2013-04-06 00:15:00,
2013-04-05 20:25:00,57.8,41.4,29.96,West,264,4.8,4.8,44,0.00,,,0.00,dv,2013-04-06 00:25:00,
2013-04-05 20:30:00,57.6,41.2,29.95,WNW,298,4.8,4.8,44,0.00,,,0.00,dv,2013-04-06 00:30:00,
2013-04-05 20:35:00,57.4,41.9,29.96,West,264,6.4,6.4,46,0.00,,,0.00,dv,2013-04-06 00:35:00,
2013-04-05 20:40:00,57.2,41.3,29.96,West,264,1.6,1.6,45,0.00,,,0.00,dv,2013-04-06 00:40:00,
2013-04-05 20:50:00,56.8,41.3,29.97,WSW,245,4.8,4.8,46,0.00,,,0.00,dv,2013-04-06 00:50:00,
2013-04-05 20:55:00,56.6,41.6,29.97,West,276,4.8,4.8,47,0.00,,,0.00,dv,2013-04-06 00:55:00,
2013-04-05 21:00:00,56.4,41.4,29.97,West,281,4.8,4.8,47,0.00,,,0.00,dv,2013-04-06 01:00:00,
2013-04-05 21:05:00,56.2,41.2,29.97,SW,218,6.4,6.4,47,0.00,,,0.00,dv,2013-04-06 01:05:00,
2013-04-05 21:10:00,56.2,41.2,29.97,West,281,6.4,6.4,47,0.00,,,0.00,dv,2013-04-06 01:10:00,
2013-04-05 21:15:00,56.2,40.8,29.98,SW,215,8.1,8.1,46,0.00,,,0.00,dv,2013-04-06 01:15:00,
2013-04-05 21:20:00,56.3,41.3,29.97,SSE,148,6.4,6.4,47,0.00,,,0.00,dv,2013-04-06 01:20:00,
2013-04-05 21:25:00,56.3,40.9,29.98,East,89,4.8,4.8,46,0.00,,,0.00,dv,2013-04-06 01:25:00,
2013-04-05 21:30:00,56.2,40.8,29.98,East,84,8.1,8.1,46,0.00,,,0.00,dv,2013-04-06 01:30:00,
2013-04-05 21:35:00,56.1,40.3,29.98,East,84,6.4,6.4,45,0.00,,,0.00,dv,2013-04-06 01:35:00,
2013-04-05 21:45:00,56.0,40.6,29.98,ENE,74,4.8,4.8,46,0.00,,,0.00,dv,2013-04-06 01:45:00,
2013-04-05 21:50:00,55.8,40.8,29.98,SSE,161,1.6,1.6,47,0.00,,,0.00,dv,2013-04-06 01:50:00,
2013-04-05 22:00:00,55.3,41.2,29.99,WSW,245,3.2,3.2,49,0.00,,,0.00,dv,2013-04-06 02:00:00,
2013-04-05 22:05:00,55.1,41.4,29.99,WSW,246,3.2,3.2,50,0.00,,,0.00,dv,2013-04-06 02:05:00,
2013-04-05 22:10:00,54.8,40.7,29.99,West,266,4.8,4.8,49,0.00,,,0.00,dv,2013-04-06 02:10:00,
2013-04-05 22:15:00,54.5,40.1,29.99,SE,131,3.2,3.2,48,0.00,,,0.00,dv,2013-04-06 02:15:00,
2013-04-05 22:20:00,54.3,40.3,29.99,SSE,153,4.8,4.8,49,0.00,,,0.00,dv,2013-04-06 02:20:00,
2013-04-05 22:25:00,54.2,39.8,30.00,SSE,156,1.6,1.6,48,0.00,,,0.00,dv,2013-04-06 02:25:00,
2013-04-05 22:30:00,54.2,39.4,30.00,ESE,111,3.2,3.2,47,0.00,,,0.00,dv,2013-04-06 02:30:00,
2013-04-05 22:35:00,54.2,39.8,30.00,ESE,115,1.6,1.6,48,0.00,,,0.00,dv,2013-04-06 02:35:00,
2013-04-05 22:40:00,54.2,40.2,30.00,ESE,113,1.6,1.6,49,0.00,,,0.00,dv,2013-04-06 02:40:00,
2013-04-05 22:45:00,54.1,40.8,30.00,South,171,3.2,3.2,51,0.00,,,0.00,dv,2013-04-06 02:45:00,
2013-04-05 22:50:00,53.8,40.2,30.00,SSW,197,3.2,3.2,50,0.00,,,0.00,dv,2013-04-06 02:50:00,
2013-04-05 22:55:00,53.6,39.6,30.01,SW,234,4.8,4.8,49,0.00,,,0.00,dv,2013-04-06 02:55:00,
2013-04-05 23:00:00,53.4,39.1,30.01,SW,234,0.0,0.0,48,0.00,,,0.00,dv,2013-04-06 03:00:00,
2013-04-05 23:05:00,53.3,39.0,30.01,SW,235,1.6,1.6,48,0.00,,,0.00,dv,2013-04-06 03:05:00,
2013-04-05 23:15:00,53.2,39.6,30.01,SW,234,1.6,1.6,50,0.00,,,0.00,dv,2013-04-06 03:15:00,
2013-04-05 23:21:00,53.0,39.5,30.01,SW,234,0.0,0.0,50,0.00,,,0.00,dv,2013-04-06 03:21:00,
2013-04-05 23:30:00,52.8,39.6,30.02,SW,234,0.0,0.0,51,0.00,,,0.00,dv,2013-04-06 03:30:00,
2013-04-05 23:35:00,52.6,39.5,30.01,SW,235,0.0,0.0,51,0.00,,,0.00,dv,2013-04-06 03:35:00,
2013-04-05 23:40:00,52.4,38.9,30.02,SW,234,0.0,0.0,50,0.00,,,0.00,dv,2013-04-06 03:40:00,
2013-04-05 23:45:00,52.3,38.8,30.01,SW,235,0.0,0.0,50,0.00,,,0.00,dv,2013-04-06 03:45:00,
2013-04-05 23:50:00,52.1,39.0,30.02,SW,234,0.0,0.0,51,0.00,,,0.00,dv,2013-04-06 03:50:00,